sensor_id;sensor_type;location;lat;lon;timestamp;temperature;humidity
36216;DHT22;22257;52.232;21.084;2022-08-02T00:00:52;20.70;99.90
36216;DHT22;22257;52.232;21.084;2022-08-02T00:03:18;20.70;99.90
36216;DHT22;22257;52.232;21.084;2022-08-02T00:05:44;20.60;99.90
36216;DHT22;22257;52.232;21.084;2022-08-02T00:08:10;20.60;99.90
36216;DHT22;22257;52.232;21.084;2022-08-02T00:10:36;20.60;99.90
36216;DHT22;22257;52.232;21.084;2022-08-02T00:13:03;20.50;99.90
36216;DHT22;22257;52.232;21.084;2022-08-02T00:15:29;20.50;99.90
36216;DHT22;22257;52.232;21.084;2022-08-02T00:17:55;20.50;99.90
36216;DHT22;22257;52.232;21.084;2022-08-02T00:20:21;20.50;99.90
36216;DHT22;22257;52.232;21.084;2022-08-02T00:22:47;20.50;99.90
36216;DHT22;22257;52.232;21.084;2022-08-02T00:25:13;20.50;99.90
36216;DHT22;22257;52.232;21.084;2022-08-02T00:27:39;20.40;99.90
36216;DHT22;22257;52.232;21.084;2022-08-02T00:30:06;20.40;99.90
36216;DHT22;22257;52.232;21.084;2022-08-02T00:32:33;20.40;99.90
36216;DHT22;22257;52.232;21.084;2022-08-02T00:34:59;20.40;99.90
36216;DHT22;22257;52.232;21.084;2022-08-02T00:37:25;20.40;99.90
36216;DHT22;22257;52.232;21.084;2022-08-02T00:39:51;20.40;99.90
36216;DHT22;22257;52.232;21.084;2022-08-02T00:42:17;20.40;99.90
36216;DHT22;22257;52.232;21.084;2022-08-02T00:44:43;20.30;99.90
36216;DHT22;22257;52.232;21.084;2022-08-02T00:47:09;20.30;99.90
36216;DHT22;22257;52.232;21.084;2022-08-02T00:49:36;20.30;99.90
36216;DHT22;22257;52.232;21.084;2022-08-02T00:52:03;20.40;99.90
36216;DHT22;22257;52.232;21.084;2022-08-02T00:54:29;20.30;99.90
36216;DHT22;22257;52.232;21.084;2022-08-02T00:56:55;20.30;99.90
36216;DHT22;22257;52.232;21.084;2022-08-02T00:59:21;20.20;99.90
36216;DHT22;22257;52.232;21.084;2022-08-02T01:01:48;20.20;99.90
36216;DHT22;22257;52.232;21.084;2022-08-02T01:04:15;20.10;99.90
36216;DHT22;22257;52.232;21.084;2022-08-02T01:06:41;20.20;99.90
36216;DHT22;22257;52.232;21.084;2022-08-02T01:09:08;20.10;99.90
36216;DHT22;22257;52.232;21.084;2022-08-02T01:11:35;20.10;99.90
36216;DHT22;22257;52.232;21.084;2022-08-02T01:14:04;20.10;99.90
36216;DHT22;22257;52.232;21.084;2022-08-02T01:16:35;20.10;99.90
36216;DHT22;22257;52.232;21.084;2022-08-02T01:19:09;20.10;99.90
36216;DHT22;22257;52.232;21.084;2022-08-02T01:29:58;20.10;99.90
36216;DHT22;22257;52.232;21.084;2022-08-02T01:32:28;20.10;99.90
36216;DHT22;22257;52.232;21.084;2022-08-02T01:35:08;20.00;99.90
36216;DHT22;22257;52.232;21.084;2022-08-02T01:40:07;20.00;99.90
36216;DHT22;22257;52.232;21.084;2022-08-02T01:42:34;20.00;99.90
36216;DHT22;22257;52.232;21.084;2022-08-02T01:45:03;19.90;99.90
36216;DHT22;22257;52.232;21.084;2022-08-02T01:47:33;20.00;99.90
36216;DHT22;22257;52.232;21.084;2022-08-02T01:50:02;20.00;99.90
36216;DHT22;22257;52.232;21.084;2022-08-02T01:52:31;20.00;99.90
36216;DHT22;22257;52.232;21.084;2022-08-02T01:55:02;20.10;99.90
36216;DHT22;22257;52.232;21.084;2022-08-02T01:57:32;20.10;99.90
36216;DHT22;22257;52.232;21.084;2022-08-02T01:59:59;20.10;99.90
36216;DHT22;22257;52.232;21.084;2022-08-02T02:02:27;20.00;99.90
36216;DHT22;22257;52.232;21.084;2022-08-02T02:04:57;19.90;99.90
36216;DHT22;22257;52.232;21.084;2022-08-02T02:07:25;19.90;99.90
36216;DHT22;22257;52.232;21.084;2022-08-02T02:09:53;19.90;99.90
36216;DHT22;22257;52.232;21.084;2022-08-02T02:12:21;19.80;99.90
36216;DHT22;22257;52.232;21.084;2022-08-02T02:14:50;19.80;99.90
36216;DHT22;22257;52.232;21.084;2022-08-02T02:17:17;19.80;99.90
36216;DHT22;22257;52.232;21.084;2022-08-02T02:19:44;19.80;99.90
36216;DHT22;22257;52.232;21.084;2022-08-02T02:22:11;19.70;99.90
36216;DHT22;22257;52.232;21.084;2022-08-02T02:24:37;19.70;99.90
36216;DHT22;22257;52.232;21.084;2022-08-02T02:27:05;19.70;99.90
36216;DHT22;22257;52.232;21.084;2022-08-02T02:29:33;19.70;99.90
36216;DHT22;22257;52.232;21.084;2022-08-02T02:32:01;19.70;99.90
36216;DHT22;22257;52.232;21.084;2022-08-02T02:34:34;19.70;99.90
36216;DHT22;22257;52.232;21.084;2022-08-02T02:37:03;19.60;99.90
36216;DHT22;22257;52.232;21.084;2022-08-02T02:39:32;19.60;99.90
36216;DHT22;22257;52.232;21.084;2022-08-02T02:42:01;19.60;99.90
36216;DHT22;22257;52.232;21.084;2022-08-02T02:44:29;19.60;99.90
36216;DHT22;22257;52.232;21.084;2022-08-02T02:46:57;19.60;99.90
36216;DHT22;22257;52.232;21.084;2022-08-02T02:49:25;19.50;99.90
36216;DHT22;22257;52.232;21.084;2022-08-02T02:51:53;19.50;99.90
36216;DHT22;22257;52.232;21.084;2022-08-02T02:54:21;19.50;99.90
36216;DHT22;22257;52.232;21.084;2022-08-02T02:56:48;19.50;99.90
36216;DHT22;22257;52.232;21.084;2022-08-02T02:59:16;19.50;99.90
36216;DHT22;22257;52.232;21.084;2022-08-02T03:01:42;19.40;99.90
36216;DHT22;22257;52.232;21.084;2022-08-02T03:04:10;19.40;99.90
36216;DHT22;22257;52.232;21.084;2022-08-02T03:06:38;19.40;99.90
36216;DHT22;22257;52.232;21.084;2022-08-02T03:09:05;19.40;99.90
36216;DHT22;22257;52.232;21.084;2022-08-02T03:11:35;19.30;99.90
36216;DHT22;22257;52.232;21.084;2022-08-02T03:14:03;19.30;99.90
36216;DHT22;22257;52.232;21.084;2022-08-02T03:16:30;19.20;99.90
36216;DHT22;22257;52.232;21.084;2022-08-02T03:18:57;19.20;99.90
36216;DHT22;22257;52.232;21.084;2022-08-02T03:21:25;19.20;99.90
36216;DHT22;22257;52.232;21.084;2022-08-02T03:23:51;19.20;99.90
36216;DHT22;22257;52.232;21.084;2022-08-02T03:26:17;19.10;99.90
36216;DHT22;22257;52.232;21.084;2022-08-02T03:28:43;19.10;99.90
36216;DHT22;22257;52.232;21.084;2022-08-02T03:31:09;19.10;99.90
36216;DHT22;22257;52.232;21.084;2022-08-02T03:33:36;19.00;99.90
36216;DHT22;22257;52.232;21.084;2022-08-02T03:36:06;19.00;99.90
36216;DHT22;22257;52.232;21.084;2022-08-02T03:38:34;18.90;99.90
36216;DHT22;22257;52.232;21.084;2022-08-02T03:41:03;18.90;99.90
36216;DHT22;22257;52.232;21.084;2022-08-02T03:43:30;18.90;99.90
36216;DHT22;22257;52.232;21.084;2022-08-02T03:45:57;18.90;99.90
36216;DHT22;22257;52.232;21.084;2022-08-02T03:48:24;18.90;99.90
36216;DHT22;22257;52.232;21.084;2022-08-02T03:50:50;18.90;99.90
36216;DHT22;22257;52.232;21.084;2022-08-02T03:53:17;18.90;99.90
36216;DHT22;22257;52.232;21.084;2022-08-02T03:55:44;18.90;99.90
36216;DHT22;22257;52.232;21.084;2022-08-02T03:58:18;18.90;99.90
36216;DHT22;22257;52.232;21.084;2022-08-02T04:00:45;18.80;99.90
36216;DHT22;22257;52.232;21.084;2022-08-02T04:03:11;18.80;99.90
36216;DHT22;22257;52.232;21.084;2022-08-02T04:05:37;18.80;99.90
36216;DHT22;22257;52.232;21.084;2022-08-02T04:08:04;18.80;99.90
36216;DHT22;22257;52.232;21.084;2022-08-02T04:10:30;18.80;99.90
36216;DHT22;22257;52.232;21.084;2022-08-02T04:12:56;18.80;99.90
36216;DHT22;22257;52.232;21.084;2022-08-02T04:15:23;18.80;99.90
36216;DHT22;22257;52.232;21.084;2022-08-02T04:17:53;18.90;99.90
36216;DHT22;22257;52.232;21.084;2022-08-02T04:20:27;18.90;99.90
36216;DHT22;22257;52.232;21.084;2022-08-02T04:22:57;19.00;99.90
36216;DHT22;22257;52.232;21.084;2022-08-02T04:25:25;19.00;99.90
36216;DHT22;22257;52.232;21.084;2022-08-02T04:27:52;19.00;99.90
36216;DHT22;22257;52.232;21.084;2022-08-02T04:30:19;19.00;99.90
36216;DHT22;22257;52.232;21.084;2022-08-02T04:32:46;19.00;99.90
36216;DHT22;22257;52.232;21.084;2022-08-02T04:35:12;19.00;99.90
36216;DHT22;22257;52.232;21.084;2022-08-02T04:37:40;19.00;99.90
36216;DHT22;22257;52.232;21.084;2022-08-02T04:40:09;19.00;99.90
36216;DHT22;22257;52.232;21.084;2022-08-02T04:42:35;19.00;99.90
36216;DHT22;22257;52.232;21.084;2022-08-02T04:45:03;19.00;99.90
36216;DHT22;22257;52.232;21.084;2022-08-02T04:47:29;19.00;99.90
36216;DHT22;22257;52.232;21.084;2022-08-02T04:49:55;19.00;99.90
36216;DHT22;22257;52.232;21.084;2022-08-02T04:52:21;18.90;99.90
36216;DHT22;22257;52.232;21.084;2022-08-02T04:54:47;19.00;99.90
36216;DHT22;22257;52.232;21.084;2022-08-02T04:57:16;19.00;99.90
36216;DHT22;22257;52.232;21.084;2022-08-02T05:00:02;19.00;99.90
36216;DHT22;22257;52.232;21.084;2022-08-02T05:02:28;19.00;99.90
36216;DHT22;22257;52.232;21.084;2022-08-02T05:04:55;19.00;99.90
36216;DHT22;22257;52.232;21.084;2022-08-02T05:07:21;19.00;99.90
36216;DHT22;22257;52.232;21.084;2022-08-02T05:09:47;19.00;99.90
36216;DHT22;22257;52.232;21.084;2022-08-02T05:12:13;19.10;99.90
36216;DHT22;22257;52.232;21.084;2022-08-02T05:14:39;19.10;99.90
36216;DHT22;22257;52.232;21.084;2022-08-02T05:17:05;19.20;99.90
36216;DHT22;22257;52.232;21.084;2022-08-02T05:19:31;19.20;99.90
36216;DHT22;22257;52.232;21.084;2022-08-02T05:21:58;19.30;99.90
36216;DHT22;22257;52.232;21.084;2022-08-02T05:24:24;19.40;99.90
36216;DHT22;22257;52.232;21.084;2022-08-02T05:26:50;19.40;99.90
36216;DHT22;22257;52.232;21.084;2022-08-02T05:29:16;19.50;99.90
36216;DHT22;22257;52.232;21.084;2022-08-02T05:31:42;19.60;99.90
36216;DHT22;22257;52.232;21.084;2022-08-02T05:34:10;19.70;99.90
36216;DHT22;22257;52.232;21.084;2022-08-02T05:36:36;19.80;99.90
36216;DHT22;22257;52.232;21.084;2022-08-02T05:39:02;19.90;99.90
36216;DHT22;22257;52.232;21.084;2022-08-02T05:41:28;20.00;99.90
36216;DHT22;22257;52.232;21.084;2022-08-02T05:43:55;20.10;99.90
36216;DHT22;22257;52.232;21.084;2022-08-02T05:46:21;20.20;99.90
36216;DHT22;22257;52.232;21.084;2022-08-02T05:48:47;20.30;99.90
36216;DHT22;22257;52.232;21.084;2022-08-02T05:51:28;20.50;99.90
36216;DHT22;22257;52.232;21.084;2022-08-02T05:56:50;20.70;99.90
36216;DHT22;22257;52.232;21.084;2022-08-02T06:01:54;20.90;99.90
36216;DHT22;22257;52.232;21.084;2022-08-02T06:04:24;21.00;99.90
36216;DHT22;22257;52.232;21.084;2022-08-02T06:06:54;21.10;99.90
36216;DHT22;22257;52.232;21.084;2022-08-02T06:09:21;21.20;99.90
36216;DHT22;22257;52.232;21.084;2022-08-02T06:11:50;21.30;99.90
36216;DHT22;22257;52.232;21.084;2022-08-02T06:14:18;21.40;99.90
36216;DHT22;22257;52.232;21.084;2022-08-02T06:16:44;21.50;99.90
36216;DHT22;22257;52.232;21.084;2022-08-02T06:19:11;21.60;99.90
36216;DHT22;22257;52.232;21.084;2022-08-02T06:21:39;21.60;99.90
36216;DHT22;22257;52.232;21.084;2022-08-02T06:24:08;21.60;99.90
36216;DHT22;22257;52.232;21.084;2022-08-02T06:26:35;21.70;99.90
36216;DHT22;22257;52.232;21.084;2022-08-02T06:29:03;21.80;99.90
36216;DHT22;22257;52.232;21.084;2022-08-02T06:31:30;21.80;99.90
36216;DHT22;22257;52.232;21.084;2022-08-02T06:33:56;21.90;99.90
36216;DHT22;22257;52.232;21.084;2022-08-02T06:36:39;21.90;99.90
36216;DHT22;22257;52.232;21.084;2022-08-02T06:39:51;22.00;99.90
36216;DHT22;22257;52.232;21.084;2022-08-02T06:41:40;22.20;99.90
36216;DHT22;22257;52.232;21.084;2022-08-02T06:44:07;22.30;99.90
36216;DHT22;22257;52.232;21.084;2022-08-02T06:46:34;22.40;99.90
36216;DHT22;22257;52.232;21.084;2022-08-02T06:49:02;22.50;99.90
36216;DHT22;22257;52.232;21.084;2022-08-02T06:51:29;22.60;99.90
36216;DHT22;22257;52.232;21.084;2022-08-02T06:53:56;22.80;99.90
36216;DHT22;22257;52.232;21.084;2022-08-02T06:56:22;22.90;99.90
36216;DHT22;22257;52.232;21.084;2022-08-02T06:58:48;23.00;99.90
36216;DHT22;22257;52.232;21.084;2022-08-02T07:01:16;23.00;99.90
36216;DHT22;22257;52.232;21.084;2022-08-02T07:03:42;23.10;99.90
36216;DHT22;22257;52.232;21.084;2022-08-02T07:06:09;23.00;99.90
36216;DHT22;22257;52.232;21.084;2022-08-02T07:08:37;23.00;99.90
36216;DHT22;22257;52.232;21.084;2022-08-02T07:11:04;23.10;99.90
36216;DHT22;22257;52.232;21.084;2022-08-02T07:13:30;23.10;99.90
36216;DHT22;22257;52.232;21.084;2022-08-02T07:15:56;23.10;99.90
36216;DHT22;22257;52.232;21.084;2022-08-02T07:18:23;23.20;99.90
36216;DHT22;22257;52.232;21.084;2022-08-02T07:20:50;23.30;99.90
36216;DHT22;22257;52.232;21.084;2022-08-02T07:23:17;23.50;99.90
36216;DHT22;22257;52.232;21.084;2022-08-02T07:25:45;23.60;99.90
36216;DHT22;22257;52.232;21.084;2022-08-02T07:28:11;23.70;99.90
36216;DHT22;22257;52.232;21.084;2022-08-02T07:30:40;23.70;99.90
36216;DHT22;22257;52.232;21.084;2022-08-02T07:33:07;23.80;99.90
36216;DHT22;22257;52.232;21.084;2022-08-02T07:35:34;23.80;99.90
36216;DHT22;22257;52.232;21.084;2022-08-02T07:38:00;23.90;99.90
36216;DHT22;22257;52.232;21.084;2022-08-02T07:40:27;23.90;99.90
36216;DHT22;22257;52.232;21.084;2022-08-02T07:42:55;23.90;99.90
36216;DHT22;22257;52.232;21.084;2022-08-02T07:45:23;23.90;99.90
36216;DHT22;22257;52.232;21.084;2022-08-02T07:47:49;24.00;99.90
36216;DHT22;22257;52.232;21.084;2022-08-02T07:50:17;24.10;99.90
36216;DHT22;22257;52.232;21.084;2022-08-02T07:52:44;24.10;99.90
36216;DHT22;22257;52.232;21.084;2022-08-02T07:55:12;24.20;99.90
36216;DHT22;22257;52.232;21.084;2022-08-02T07:57:40;24.20;99.90
36216;DHT22;22257;52.232;21.084;2022-08-02T08:00:07;24.00;99.90
36216;DHT22;22257;52.232;21.084;2022-08-02T08:02:36;23.90;99.90
36216;DHT22;22257;52.232;21.084;2022-08-02T08:05:03;23.80;99.90
36216;DHT22;22257;52.232;21.084;2022-08-02T08:07:32;24.10;99.90
36216;DHT22;22257;52.232;21.084;2022-08-02T08:09:58;24.20;99.90
36216;DHT22;22257;52.232;21.084;2022-08-02T08:12:26;24.40;99.90
36216;DHT22;22257;52.232;21.084;2022-08-02T08:14:52;24.50;99.90
36216;DHT22;22257;52.232;21.084;2022-08-02T08:17:19;24.60;99.90
36216;DHT22;22257;52.232;21.084;2022-08-02T08:19:45;24.80;99.90
36216;DHT22;22257;52.232;21.084;2022-08-02T08:22:11;24.90;99.90
36216;DHT22;22257;52.232;21.084;2022-08-02T08:24:38;25.00;99.90
36216;DHT22;22257;52.232;21.084;2022-08-02T08:27:04;24.90;99.90
36216;DHT22;22257;52.232;21.084;2022-08-02T08:29:30;25.00;99.90
36216;DHT22;22257;52.232;21.084;2022-08-02T08:31:57;25.10;99.90
36216;DHT22;22257;52.232;21.084;2022-08-02T08:34:23;25.30;99.90
36216;DHT22;22257;52.232;21.084;2022-08-02T08:36:51;25.30;99.90
36216;DHT22;22257;52.232;21.084;2022-08-02T08:39:17;25.00;99.90
36216;DHT22;22257;52.232;21.084;2022-08-02T08:41:43;25.10;99.90
36216;DHT22;22257;52.232;21.084;2022-08-02T08:44:10;25.20;99.90
36216;DHT22;22257;52.232;21.084;2022-08-02T08:46:37;25.30;99.90
36216;DHT22;22257;52.232;21.084;2022-08-02T08:49:26;25.20;99.90
36216;DHT22;22257;52.232;21.084;2022-08-02T08:51:54;25.30;99.80
36216;DHT22;22257;52.232;21.084;2022-08-02T08:54:23;25.10;99.90
36216;DHT22;22257;52.232;21.084;2022-08-02T08:56:53;25.20;99.90
36216;DHT22;22257;52.232;21.084;2022-08-02T08:59:20;25.10;99.70
36216;DHT22;22257;52.232;21.084;2022-08-02T09:01:48;25.20;99.90
36216;DHT22;22257;52.232;21.084;2022-08-02T09:04:15;25.40;99.90
36216;DHT22;22257;52.232;21.084;2022-08-02T09:06:42;25.50;99.90
36216;DHT22;22257;52.232;21.084;2022-08-02T09:09:08;25.60;99.90
36216;DHT22;22257;52.232;21.084;2022-08-02T09:11:34;25.60;99.90
36216;DHT22;22257;52.232;21.084;2022-08-02T09:14:02;25.70;99.90
36216;DHT22;22257;52.232;21.084;2022-08-02T09:16:34;25.70;99.90
36216;DHT22;22257;52.232;21.084;2022-08-02T09:19:24;25.80;99.90
36216;DHT22;22257;52.232;21.084;2022-08-02T09:21:35;26.10;99.90
36216;DHT22;22257;52.232;21.084;2022-08-02T09:24:02;26.10;99.90
36216;DHT22;22257;52.232;21.084;2022-08-02T09:26:30;26.20;99.50
36216;DHT22;22257;52.232;21.084;2022-08-02T09:29:00;26.30;98.00
36216;DHT22;22257;52.232;21.084;2022-08-02T09:31:27;26.40;96.80
36216;DHT22;22257;52.232;21.084;2022-08-02T09:33:57;26.30;97.30
36216;DHT22;22257;52.232;21.084;2022-08-02T09:36:27;26.30;96.60
36216;DHT22;22257;52.232;21.084;2022-08-02T09:38:58;26.10;96.90
36216;DHT22;22257;52.232;21.084;2022-08-02T09:41:28;26.10;97.00
36216;DHT22;22257;52.232;21.084;2022-08-02T09:43:56;26.00;96.90
36216;DHT22;22257;52.232;21.084;2022-08-02T09:46:30;25.70;97.20
36216;DHT22;22257;52.232;21.084;2022-08-02T09:49:00;25.60;98.00
36216;DHT22;22257;52.232;21.084;2022-08-02T09:51:32;25.50;98.80
36216;DHT22;22257;52.232;21.084;2022-08-02T09:54:08;25.60;99.30
36216;DHT22;22257;52.232;21.084;2022-08-02T09:56:52;25.90;97.30
36216;DHT22;22257;52.232;21.084;2022-08-02T09:59:20;26.10;98.50
36216;DHT22;22257;52.232;21.084;2022-08-02T10:01:47;26.50;97.70
36216;DHT22;22257;52.232;21.084;2022-08-02T10:04:14;26.80;97.20
36216;DHT22;22257;52.232;21.084;2022-08-02T10:06:43;26.90;95.30
36216;DHT22;22257;52.232;21.084;2022-08-02T10:09:10;26.90;96.40
36216;DHT22;22257;52.232;21.084;2022-08-02T10:11:37;27.20;94.50
36216;DHT22;22257;52.232;21.084;2022-08-02T10:14:06;27.00;94.70
36216;DHT22;22257;52.232;21.084;2022-08-02T10:16:34;26.80;96.60
36216;DHT22;22257;52.232;21.084;2022-08-02T10:19:01;26.70;97.20
36216;DHT22;22257;52.232;21.084;2022-08-02T10:21:45;26.70;96.80
36216;DHT22;22257;52.232;21.084;2022-08-02T10:24:14;26.80;96.30
36216;DHT22;22257;52.232;21.084;2022-08-02T10:26:45;26.60;96.30
36216;DHT22;22257;52.232;21.084;2022-08-02T10:29:17;26.80;96.60
36216;DHT22;22257;52.232;21.084;2022-08-02T10:31:53;27.00;95.70
36216;DHT22;22257;52.232;21.084;2022-08-02T10:36:56;27.00;96.70
36216;DHT22;22257;52.232;21.084;2022-08-02T10:39:24;27.10;96.60
36216;DHT22;22257;52.232;21.084;2022-08-02T10:41:51;26.60;96.60
36216;DHT22;22257;52.232;21.084;2022-08-02T10:44:29;26.50;97.90
36216;DHT22;22257;52.232;21.084;2022-08-02T10:52:24;26.50;97.10
36216;DHT22;22257;52.232;21.084;2022-08-02T10:54:59;26.50;97.00
36216;DHT22;22257;52.232;21.084;2022-08-02T10:57:31;26.70;97.40
36216;DHT22;22257;52.232;21.084;2022-08-02T11:02:52;27.00;95.90
36216;DHT22;22257;52.232;21.084;2022-08-02T11:05:30;26.90;95.20
36216;DHT22;22257;52.232;21.084;2022-08-02T11:07:57;26.70;95.60
36216;DHT22;22257;52.232;21.084;2022-08-02T11:15:29;27.20;95.70
36216;DHT22;22257;52.232;21.084;2022-08-02T11:17:57;27.50;95.40
36216;DHT22;22257;52.232;21.084;2022-08-02T11:20:25;27.90;94.60
36216;DHT22;22257;52.232;21.084;2022-08-02T11:22:53;27.90;93.20
36216;DHT22;22257;52.232;21.084;2022-08-02T11:27:59;27.60;93.70
36216;DHT22;22257;52.232;21.084;2022-08-02T11:30:26;27.30;93.90
36216;DHT22;22257;52.232;21.084;2022-08-02T11:32:56;27.10;95.20
36216;DHT22;22257;52.232;21.084;2022-08-02T11:35:31;26.90;95.20
36216;DHT22;22257;52.232;21.084;2022-08-02T11:38:20;26.90;95.10
36216;DHT22;22257;52.232;21.084;2022-08-02T11:40:45;27.10;95.90
36216;DHT22;22257;52.232;21.084;2022-08-02T11:43:21;27.10;95.60
36216;DHT22;22257;52.232;21.084;2022-08-02T11:45:44;27.10;95.50
36216;DHT22;22257;52.232;21.084;2022-08-02T11:48:10;27.30;95.30
36216;DHT22;22257;52.232;21.084;2022-08-02T11:50:37;27.50;97.00
36216;DHT22;22257;52.232;21.084;2022-08-02T11:53:11;27.70;94.80
36216;DHT22;22257;52.232;21.084;2022-08-02T11:55:37;27.60;95.00
36216;DHT22;22257;52.232;21.084;2022-08-02T11:58:04;27.20;95.10
36216;DHT22;22257;52.232;21.084;2022-08-02T12:00:32;27.30;96.50
36216;DHT22;22257;52.232;21.084;2022-08-02T12:02:59;27.40;95.80
36216;DHT22;22257;52.232;21.084;2022-08-02T12:05:25;27.90;96.20
36216;DHT22;22257;52.232;21.084;2022-08-02T12:07:53;28.30;93.50
36216;DHT22;22257;52.232;21.084;2022-08-02T12:10:21;28.30;93.50
36216;DHT22;22257;52.232;21.084;2022-08-02T12:12:59;27.70;95.10
36216;DHT22;22257;52.232;21.084;2022-08-02T12:15:36;27.60;95.00
36216;DHT22;22257;52.232;21.084;2022-08-02T12:18:08;27.10;96.10
36216;DHT22;22257;52.232;21.084;2022-08-02T12:20:54;27.20;96.10
36216;DHT22;22257;52.232;21.084;2022-08-02T12:23:20;27.20;96.30
36216;DHT22;22257;52.232;21.084;2022-08-02T12:26:04;27.40;97.20
36216;DHT22;22257;52.232;21.084;2022-08-02T12:28:36;27.50;96.90
36216;DHT22;22257;52.232;21.084;2022-08-02T12:31:07;27.30;96.90
36216;DHT22;22257;52.232;21.084;2022-08-02T12:33:49;28.00;95.20
36216;DHT22;22257;52.232;21.084;2022-08-02T12:36:21;28.40;92.90
36216;DHT22;22257;52.232;21.084;2022-08-02T12:38:52;28.20;93.20
36216;DHT22;22257;52.232;21.084;2022-08-02T12:41:19;28.40;94.20
36216;DHT22;22257;52.232;21.084;2022-08-02T12:43:45;28.50;93.10
36216;DHT22;22257;52.232;21.084;2022-08-02T12:46:16;28.80;91.80
36216;DHT22;22257;52.232;21.084;2022-08-02T12:48:43;29.30;90.90
36216;DHT22;22257;52.232;21.084;2022-08-02T12:51:20;29.60;90.80
36216;DHT22;22257;52.232;21.084;2022-08-02T12:53:47;29.50;90.70
36216;DHT22;22257;52.232;21.084;2022-08-02T12:56:32;29.70;90.70
36216;DHT22;22257;52.232;21.084;2022-08-02T12:58:59;30.60;84.50
36216;DHT22;22257;52.232;21.084;2022-08-02T13:01:26;29.90;87.10
36216;DHT22;22257;52.232;21.084;2022-08-02T13:03:54;29.50;86.40
36216;DHT22;22257;52.232;21.084;2022-08-02T13:06:20;29.50;85.80
36216;DHT22;22257;52.232;21.084;2022-08-02T13:08:47;28.90;88.00
36216;DHT22;22257;52.232;21.084;2022-08-02T13:11:13;28.70;90.40
36216;DHT22;22257;52.232;21.084;2022-08-02T13:13:40;29.00;89.30
36216;DHT22;22257;52.232;21.084;2022-08-02T13:16:08;29.20;89.80
36216;DHT22;22257;52.232;21.084;2022-08-02T13:18:35;29.70;89.40
36216;DHT22;22257;52.232;21.084;2022-08-02T13:21:02;30.30;83.40
36216;DHT22;22257;52.232;21.084;2022-08-02T13:23:30;29.90;85.00
36216;DHT22;22257;52.232;21.084;2022-08-02T13:25:56;30.20;87.70
36216;DHT22;22257;52.232;21.084;2022-08-02T13:28:22;30.80;82.10
36216;DHT22;22257;52.232;21.084;2022-08-02T13:30:49;30.50;80.00
36216;DHT22;22257;52.232;21.084;2022-08-02T13:33:16;30.20;80.20
36216;DHT22;22257;52.232;21.084;2022-08-02T13:35:43;29.40;81.80
36216;DHT22;22257;52.232;21.084;2022-08-02T13:38:10;28.80;84.40
36216;DHT22;22257;52.232;21.084;2022-08-02T13:40:36;28.90;85.40
36216;DHT22;22257;52.232;21.084;2022-08-02T13:43:06;28.80;87.10
36216;DHT22;22257;52.232;21.084;2022-08-02T13:45:33;28.40;88.80
36216;DHT22;22257;52.232;21.084;2022-08-02T13:47:59;28.50;87.80
36216;DHT22;22257;52.232;21.084;2022-08-02T13:50:25;28.50;87.00
36216;DHT22;22257;52.232;21.084;2022-08-02T13:52:51;28.80;85.10
36216;DHT22;22257;52.232;21.084;2022-08-02T13:55:17;29.10;85.70
36216;DHT22;22257;52.232;21.084;2022-08-02T13:57:43;29.20;83.90
36216;DHT22;22257;52.232;21.084;2022-08-02T14:00:11;29.20;83.00
36216;DHT22;22257;52.232;21.084;2022-08-02T14:02:37;29.40;81.90
36216;DHT22;22257;52.232;21.084;2022-08-02T14:05:06;29.20;83.50
36216;DHT22;22257;52.232;21.084;2022-08-02T14:07:32;29.10;83.60
36216;DHT22;22257;52.232;21.084;2022-08-02T14:09:58;28.80;84.50
36216;DHT22;22257;52.232;21.084;2022-08-02T14:12:24;28.60;88.20
36216;DHT22;22257;52.232;21.084;2022-08-02T14:14:51;28.60;88.60
36216;DHT22;22257;52.232;21.084;2022-08-02T14:17:17;28.80;87.80
36216;DHT22;22257;52.232;21.084;2022-08-02T14:19:43;28.60;86.80
36216;DHT22;22257;52.232;21.084;2022-08-02T14:22:09;28.20;88.70
36216;DHT22;22257;52.232;21.084;2022-08-02T14:24:35;28.10;90.20
36216;DHT22;22257;52.232;21.084;2022-08-02T14:27:01;27.80;90.30
36216;DHT22;22257;52.232;21.084;2022-08-02T14:29:27;27.60;90.40
36216;DHT22;22257;52.232;21.084;2022-08-02T14:31:53;27.70;91.60
36216;DHT22;22257;52.232;21.084;2022-08-02T14:34:19;27.90;91.50
36216;DHT22;22257;52.232;21.084;2022-08-02T14:36:45;28.20;88.70
36216;DHT22;22257;52.232;21.084;2022-08-02T14:39:11;28.40;87.60
36216;DHT22;22257;52.232;21.084;2022-08-02T14:41:38;28.50;89.10
36216;DHT22;22257;52.232;21.084;2022-08-02T14:44:04;29.10;89.90
36216;DHT22;22257;52.232;21.084;2022-08-02T14:46:32;29.70;88.10
36216;DHT22;22257;52.232;21.084;2022-08-02T14:48:58;30.20;85.50
36216;DHT22;22257;52.232;21.084;2022-08-02T14:51:29;30.30;83.30
36216;DHT22;22257;52.232;21.084;2022-08-02T14:54:02;29.50;84.20
36216;DHT22;22257;52.232;21.084;2022-08-02T14:56:25;29.20;83.90
36216;DHT22;22257;52.232;21.084;2022-08-02T14:58:51;28.70;84.50
36216;DHT22;22257;52.232;21.084;2022-08-02T15:01:17;28.70;86.20
36216;DHT22;22257;52.232;21.084;2022-08-02T15:03:43;29.50;84.00
36216;DHT22;22257;52.232;21.084;2022-08-02T15:06:09;30.20;82.20
36216;DHT22;22257;52.232;21.084;2022-08-02T15:08:35;31.30;81.20
36216;DHT22;22257;52.232;21.084;2022-08-02T15:11:02;32.60;73.80
36216;DHT22;22257;52.232;21.084;2022-08-02T15:13:28;33.00;71.80
36216;DHT22;22257;52.232;21.084;2022-08-02T15:15:54;33.30;70.70
36216;DHT22;22257;52.232;21.084;2022-08-02T15:18:20;33.10;69.40
36216;DHT22;22257;52.232;21.084;2022-08-02T15:20:46;31.80;70.20
36216;DHT22;22257;52.232;21.084;2022-08-02T15:23:13;30.80;73.60
36216;DHT22;22257;52.232;21.084;2022-08-02T15:25:40;30.80;73.90
36216;DHT22;22257;52.232;21.084;2022-08-02T15:28:08;30.80;74.40
36216;DHT22;22257;52.232;21.084;2022-08-02T15:30:35;31.80;71.20
36216;DHT22;22257;52.232;21.084;2022-08-02T15:33:04;31.60;71.40
36216;DHT22;22257;52.232;21.084;2022-08-02T15:35:31;30.90;72.90
36216;DHT22;22257;52.232;21.084;2022-08-02T15:37:57;30.80;74.30
36216;DHT22;22257;52.232;21.084;2022-08-02T15:40:24;30.70;73.20
36216;DHT22;22257;52.232;21.084;2022-08-02T15:42:51;30.60;73.50
36216;DHT22;22257;52.232;21.084;2022-08-02T15:45:17;30.90;74.00
36216;DHT22;22257;52.232;21.084;2022-08-02T15:47:44;31.80;71.50
36216;DHT22;22257;52.232;21.084;2022-08-02T15:50:11;32.30;70.60
36216;DHT22;22257;52.232;21.084;2022-08-02T15:52:37;32.90;69.40
36216;DHT22;22257;52.232;21.084;2022-08-02T15:55:04;32.90;68.70